createdAt,value
2022-10-20T00:10:30.498Z,2.33
2022-10-20T00:25:31.958Z,2.27
2022-10-20T00:40:33.414Z,3.73
2022-10-20T00:55:34.963Z,2.73
2022-10-20T01:10:36.411Z,2.40
2022-10-20T01:25:37.874Z,2.53
2022-10-20T01:40:39.317Z,2.23
2022-10-20T01:55:40.782Z,3.53
2022-10-20T02:10:42.250Z,2.10
2022-10-20T02:25:43.709Z,2.47
2022-10-20T02:40:45.162Z,3.27
2022-10-20T02:55:46.602Z,2.47
2022-10-20T03:10:48.062Z,2.10
2022-10-20T03:25:49.522Z,2.33
2022-10-20T03:40:51.041Z,2.73
2022-10-20T03:55:52.538Z,2.83
2022-10-20T04:10:53.974Z,2.77
2022-10-20T04:41:20.601Z,3.47
2022-10-20T07:30:28.052Z,2.97
2022-10-20T07:45:29.543Z,2.63
2022-10-20T08:00:31.032Z,2.60
2022-10-20T08:30:47.907Z,4.23
2022-10-20T08:45:49.378Z,3.90
2022-10-20T09:00:50.838Z,3.30
2022-10-20T09:15:52.300Z,4.17
2022-10-20T09:30:53.775Z,3.83
2022-10-20T09:45:55.286Z,5.17
2022-10-20T10:00:56.807Z,3.60
2022-10-20T10:15:58.294Z,3.93
2022-10-20T10:30:59.737Z,6.77
2022-10-20T10:46:01.187Z,3.70
2022-10-20T11:01:02.760Z,3.50
2022-10-20T11:16:04.270Z,4.10
2022-10-20T11:31:05.726Z,4.23
2022-10-20T11:46:07.184Z,3.33
2022-10-20T12:01:08.765Z,4.20
2022-10-20T12:16:10.223Z,3.80
2022-10-20T12:31:11.681Z,4.03
2022-10-20T12:46:13.193Z,3.20
2022-10-20T13:01:14.704Z,3.87
2022-10-20T14:17:51.839Z,5.23
2022-10-20T14:32:53.405Z,4.13
2022-10-20T14:47:54.879Z,4.13
2022-10-20T15:02:56.372Z,4.10
2022-10-20T15:17:57.835Z,3.33
2022-10-20T15:32:59.299Z,4.73
2022-10-20T15:48:00.776Z,11.37
2022-10-20T16:03:02.241Z,5.40
2022-10-20T16:18:05.889Z,6.23
2022-10-20T16:33:10.389Z,11.00
2022-10-20T16:48:11.857Z,8.70
2022-10-20T17:03:16.891Z,10.50
2022-10-20T17:18:20.940Z,7.60
2022-10-20T17:33:22.405Z,9.43
2022-10-20T17:48:23.866Z,8.33
2022-10-20T18:03:25.347Z,7.93
2022-10-20T18:18:27.102Z,9.97
2022-10-20T18:33:28.675Z,7.57
2022-10-20T18:48:30.232Z,6.43
2022-10-20T19:03:31.735Z,7.40
2022-10-20T19:18:33.200Z,7.47
2022-10-20T19:33:34.652Z,5.63
2022-10-20T19:48:36.118Z,5.40
2022-10-20T20:03:37.565Z,7.20
2022-10-20T20:18:39.022Z,6.70
2022-10-20T20:33:40.493Z,5.90
2022-10-20T20:48:41.959Z,7.43
2022-10-20T21:03:43.427Z,5.73
2022-10-20T21:18:46.229Z,8.43
2022-10-20T21:33:47.758Z,6.87
2022-10-20T21:48:49.233Z,5.80
2022-10-20T22:03:50.696Z,8.63
2022-10-20T22:18:52.166Z,5.90
2022-10-20T22:33:53.620Z,7.23
2022-10-20T22:48:55.101Z,7.03
2022-10-20T23:03:56.587Z,6.67
2022-10-20T23:18:58.057Z,5.37
2022-10-20T23:33:59.515Z,5.70
2022-10-20T23:49:00.962Z,5.80
